x

8413320 - Bar Harbor, Me (atgm1) Weather Station

10:30am - Sat 23rd Jul 2016 All times are EDT. -4 hours from GMT.

  • Wind
    7mph, 8mph gusts
  • Sea Temp 58°f
  • 空気 Temp 67°f
  • Sea Pressure 1004.8mb
  • 8413320 - Bar Harbor, Me
  • 8413320 - Bar Harbor, Me

More Historic Weather Station data

Upgrade to MSW Pro to gain access to the past 30 days of data for over 8000 Wavebouys and Weather Stations around the globe.

Join Pro

Comparision Forecast

View Surf forecast
   
Sat 07/23 10:30am 7 8 mph 1004.8mb 58f 67f
10:24am 6 7 mph 1004.8mb 58f 67f
10:18am 5
mph
1004.8mb 58f 66f
10:12am 3 5 mph 1004.9mb 58f 64f
10:06am 2 3 mph 1004.9mb 58f 64f
10:00am 5
mph
1005mb 58f 63f
9:54am 5 6 mph 1005mb 58f 64f
9:48am 6
mph
1005.1mb 58f 64f
9:42am 3 5 mph 1005.1mb 58f 68f
9:36am 3 6 mph 1005.1mb 59f 70f
9:30am 7 8 mph 1005.1mb 59f 66f
9:24am 6 7 mph 1005mb 58f 68f
9:18am 2 5 mph 1005mb 59f 70f
9:12am 3 6 mph 1005mb 59f 69f
9:06am 6 8 mph 1005mb 58f 69f
9:00am 6 8 mph 1005mb 59f 68f
8:54am 7 8 mph 1005mb 59f 67f
8:48am 5 7 mph 1005mb 58f 69f
8:42am 5 7 mph 1005mb 58f 68f
8:36am 2 6 mph 1004.9mb 58f 69f
8:30am 1 3 mph 1004.9mb 58f 72f
8:24am 1 2 mph 1004.8mb 58f 72f
8:18am  -  1 mph 1004.8mb 58f 72f
8:12am  -  mph 1004.7mb 58f 72f
8:06am  -  mph 1004.7mb 58f 73f
8:00am  -  1 mph 1004.7mb 58f 71f
7:54am 1 3 mph 1004.7mb 58f 70f
7:48am 3 6 mph 1004.6mb 58f 67f
7:42am 5 6 mph 1004.4mb 58f 67f
7:36am 5
mph
1004.4mb 58f 67f
7:30am 5
mph
1004.4mb 58f 67f
7:24am 5
mph
1004.5mb 58f 65f
7:18am 1 2 mph 1004.4mb 58f 67f
7:12am 1
mph
1004.3mb 58f 67f
7:06am 1 2 mph 1004.2mb 58f 67f
7:00am  -  3 mph 1004.2mb 58f 66f
6:54am 3 5 mph 1004.1mb 58f 66f
6:48am 3 6 mph 1004mb 58f 66f
6:42am 3 5 mph 1004.1mb 58f 66f
6:36am 5
mph
1004.1mb 59f 65f
6:30am 5 6 mph 1004mb 59f 66f
6:24am 3 5 mph 1004.1mb 59f 65f
6:18am 5 6 mph 1004.2mb 59f 65f
6:12am 8 9 mph 1004.3mb 59f 65f
6:06am 5 9 mph 1004.2mb 58f 65f
6:00am 7 8 mph 1003.8mb 58f 66f
5:54am 6 8 mph 1003.7mb 58f 65f
5:48am 5
mph
1003.4mb 58f 67f
5:42am 3 7 mph 1003.2mb 58f 68f
5:36am 6 9 mph 1003.6mb 58f 67f
5:30am 8 13 mph 1003.8mb 58f 68f
5:24am 9 13 mph 1003.9mb 58f 68f
5:18am 11 14 mph 1003.6mb 58f 67f
5:12am 7 10 mph 1003.6mb 58f 69f
5:06am 7 11 mph 1003.5mb 58f 69f
5:00am 7 14 mph 1003.7mb 58f 69f
4:54am 9 14 mph 1003.8mb 58f 69f
4:48am 9 15 mph 1003.7mb 58f 69f
4:42am 11 16 mph 1004.1mb 58f 69f
4:36am 10 16 mph 1004.3mb 58f 69f
4:30am 10 18 mph 1004.5mb 58f 70f
4:24am 10 17 mph 1004.6mb 58f 71f
4:18am 10 15 mph 1004.7mb 58f 71f
4:12am 3 6 mph 1004.6mb 58f 67f
4:06am 3 5 mph 1004.7mb 58f 65f
4:00am 5 7 mph 1004.5mb 58f 65f
3:54am 1 3 mph 1004mb 58f 63f
3:48am  -  1 mph 1003.8mb 58f 65f
3:42am  -  2 mph 1003.9mb 58f 65f
3:36am 1 2 mph 1003.9mb 58f 65f
3:30am 2 3 mph 1003.8mb 58f 64f
3:24am 2 3 mph 1003.9mb 58f 64f
3:18am 1 2 mph 1003.9mb 58f 64f
3:12am 2 5 mph 1003.9mb 58f 63f
3:06am 3 6 mph 1003.9mb 58f 63f
3:00am 2 5 mph 1004mb 58f 64f
2:54am 2 5 mph 1004.1mb 58f 63f
2:48am 2 3 mph 1004.1mb 58f 63f
2:42am  -  2 mph 1004mb 58f 63f
2:36am 1 5 mph 1004.1mb 57f 63f
2:30am 3 5 mph 1004mb 57f 64f
2:24am  -  1 mph 1003.9mb 57f 64f
2:18am 1 2 mph 1003.8mb 57f 64f
2:12am 2 3 mph 1003.7mb 57f 63f
2:06am 3 5 mph 1003.6mb 57f 62f
2:00am 2 3 mph 1003.8mb 57f 63f
1:54am 3
mph
1003.8mb 57f 65f
1:48am 5
mph
1003.8mb 57f 64f
1:42am  -  2 mph 1003.8mb 57f 62f
1:36am 2 5 mph 1003.9mb 57f 61f
1:30am 5 6 mph 1004mb 57f 62f
1:24am 5 7 mph 1004.1mb 57f 63f
1:18am 3 7 mph 1003.9mb 57f 64f
1:12am 1
mph
1003.7mb 57f 66f
1:06am 1 3 mph 1003.7mb 57f 67f
1:00am 3 6 mph 1003.6mb 56f 67f
12:54am 5 6 mph 1003.6mb 56f 67f
12:48am 3 6 mph 1003.8mb 56f 67f
12:42am 3
mph
1004mb 56f 66f
12:36am 2
mph
1004mb 56f 65f
12:30am  -  1 mph 1004.1mb 56f 65f
12:24am 1 2 mph 1004.3mb 56f 64f
12:18am 1 2 mph 1004.1mb 56f 65f
12:12am 1 3 mph 1004.2mb 56f 68f
12:06am 3
mph
1004.2mb 56f 66f
12:00am 2 3 mph - 56f 65f
Fri 07/22 11:54pm  -  1 mph - 56f 67f
11:48pm 1 2 mph 1004.2mb 55f 68f
11:42pm 1 3 mph 1004.4mb 55f 69f
11:36pm 3 6 mph 1004.5mb 56f 68f
11:30pm 3 5 mph 1004.4mb 56f 67f
11:24pm 3 6 mph 1004.4mb 56f 70f
11:18pm  -  2 mph 1004.3mb 56f 73f
11:12pm 2 5 mph 1004.2mb 56f 74f
11:06pm 3 5 mph 1004mb 56f 74f
11:00pm  -  mph - 56f 74f
10:54pm  -  mph - 56f 73f
10:48pm 3 5 mph - - -
10:42pm 3 5 mph - - -
10:36pm 5 7 mph - - -
10:30pm 3 5 mph - 56f -
10:24pm 3 5 mph - 56f -
10:18pm 3 6 mph - 56f 72f
10:12pm 5 6 mph - 56f 71f
10:06pm 3 7 mph - 56f 69f
10:00pm 6 7 mph - 56f 70f
9:54pm 6 13 mph - 56f -
9:48pm 13 18 mph - - -
9:42pm 13 20 mph - - -
9:36pm 14 24 mph - - -
9:30pm 10 16 mph - 57f -
9:24pm 11 15 mph - 57f -
9:18pm 10 15 mph 1003.6mb 57f -
9:12pm 11 16 mph 1003.6mb 57f -
9:06pm 11 16 mph 1003.4mb 57f -
9:00pm  -  mph - 57f 78f
8:54pm  -  mph - 57f 78f
8:48pm 11 16 mph - - -
8:42pm 11 17 mph - - -
8:36pm 13 17 mph - - -
8:30pm 13 16 mph - - 79f
8:24pm 13 17 mph - - 79f
8:18pm  -  mph - 57f -
8:12pm  -  mph - 56f -
8:06pm  -  mph - 56f -
8:00pm  -  mph - - 80f
7:54pm  -  mph - - 81f
7:48pm 11 21 mph - 56f -
7:42pm 11 16 mph - 56f -
7:36pm 10 20 mph - 56f -
7:30pm 13 18 mph - 56f -
7:24pm 14 18 mph - 56f -
7:18pm 11 17 mph - 56f -
7:12pm 9 17 mph - 56f -
7:06pm 14 20 mph - 56f -
7:00pm 11 18 mph - 56f -
6:54pm 11 17 mph - 56f -
6:48pm 9 21 mph - 56f -
6:42pm 13 20 mph - 56f -
6:36pm 10 18 mph - 56f -
6:30pm 17 22 mph - 56f 80f
6:24pm 15 23 mph - 56f 80f
6:18pm  -  mph - 56f 80f
6:12pm  -  mph - 56f 81f
6:06pm  -  mph - 56f 81f
6:00pm  -  mph - 56f -
5:54pm  -  mph - 56f -
5:48pm 14 21 mph - 56f 81f
5:42pm 11 22 mph - 56f 81f
5:36pm 13 20 mph - 56f 80f
5:30pm 11 21 mph 1002.7mb 56f 80f
5:24pm 16 22 mph 1002.7mb 56f 81f
5:18pm 13 21 mph 1002.9mb 56f 81f
5:12pm 13 22 mph 1002.9mb 55f 81f
5:06pm 10 23 mph 1003mb 56f 81f
5:00pm 16 22 mph 1002.9mb 56f 81f
4:54pm 11 17 mph 1002.9mb 56f 82f
4:48pm 15 24 mph 1002.9mb 56f 82f
4:42pm 14 22 mph 1002.9mb 56f 82f
4:36pm 14 24 mph 1003mb 56f 82f
4:30pm 15 21 mph 1003mb 56f 82f
4:24pm 11 22 mph 1003.1mb 56f 82f
4:18pm 16 23 mph 1003.1mb 56f 81f
4:12pm 14 21 mph 1003.2mb 56f 81f
4:06pm 18 25 mph 1003.2mb 56f 80f
4:00pm 11 21 mph 1003.4mb 56f 81f
3:54pm 15 25 mph 1003.4mb 56f 80f
3:48pm 10 22 mph 1003.4mb 56f 80f
3:42pm 15 24 mph 1003.5mb 56f 80f
3:36pm 15 20 mph 1003.6mb 56f 80f
3:30pm 10 21 mph 1003.7mb 56f 80f
3:24pm 14 22 mph 1003.7mb 56f 80f
3:18pm 9 22 mph 1003.7mb 56f 81f
3:12pm 11 21 mph 1003.7mb 55f 80f
3:06pm 10 22 mph 1003.9mb 55f 80f
3:00pm 16 24 mph 1004mb 55f 80f
2:54pm 10 21 mph 1004mb 55f 80f
2:48pm 13 22 mph 1004.1mb 55f 80f
2:42pm 15 23 mph 1004.1mb 55f 80f
2:36pm 14 22 mph 1004.2mb 55f 80f
2:30pm 13 24 mph 1004.3mb 54f 80f
2:24pm 16 24 mph 1004.3mb 54f 80f
2:18pm 13 22 mph 1004.3mb 56f 79f
2:12pm 15 23 mph 1004.3mb 54f 79f
2:06pm 11 22 mph 1004.2mb 54f 79f
2:00pm 14 23 mph 1004.1mb 54f 79f
1:54pm 15 24 mph 1004.2mb 54f 79f
1:48pm 14 24 mph 1004.2mb 54f 80f
1:42pm 10 18 mph 1004.2mb 55f 80f
1:36pm 8 20 mph 1004.3mb 54f 80f
1:30pm 17 22 mph 1004.4mb 54f 79f
1:24pm 7 17 mph 1004.4mb 54f 80f
1:18pm 14 20 mph 1004.5mb 54f 78f
1:12pm 10 15 mph 1004.6mb 54f 79f
1:06pm 10 22 mph 1004.6mb 54f 78f
1:00pm 6 20 mph 1004.7mb 54f 78f
12:54pm 11 22 mph 1004.8mb 54f 79f
12:48pm 16 22 mph 1004.8mb 54f 78f
12:42pm 15 24 mph 1004.8mb 54f 77f
12:36pm 16 22 mph 1004.9mb 54f 77f
12:30pm 9 22 mph 1005mb 54f 78f
12:24pm 11 20 mph 1005.1mb 55f 78f
12:18pm 14 18 mph 1005.2mb 56f 77f
12:12pm 10 17 mph 1005.3mb 55f 77f
12:06pm 11 20 mph 1005.2mb 55f 77f
12:00pm 14 21 mph 1005.2mb 56f 76f
11:54am 13 23 mph 1005.3mb 56f 76f
11:48am 7 18 mph 1005.5mb 55f 75f
11:42am 3 17 mph 1005.6mb 55f 76f
11:36am 11 18 mph 1005.6mb 56f 75f
11:30am 9 14 mph 1005.5mb 56f 75f
11:24am 9 18 mph 1005.7mb 56f 76f
11:18am 11 20 mph 1005.6mb 56f 76f
11:12am 13 21 mph 1005.7mb 56f 77f
11:06am 10 20 mph 1005.7mb 56f 76f
11:00am 10 17 mph 1005.8mb 56f 76f
10:54am 11 21 mph 1005.8mb 56f 76f
10:48am 14 21 mph 1005.8mb 56f 76f
10:42am 15 20 mph 1005.9mb 56f 76f
10:36am 11 21 mph 1005.9mb 56f 75f
10:30am 13 20 mph 1005.9mb 56f 75f
10:24am 14 22 mph 1005.8mb 56f 75f
10:18am 15 21 mph 1005.7mb 56f 76f
10:12am 14 24 mph 1005.7mb 56f 76f
10:06am 15 24 mph 1005.9mb 56f 74f
10:00am 14 21 mph 1006mb 56f 74f
9:54am 13 23 mph 1006mb 56f 74f
9:48am 17 25 mph 1006.1mb 56f 73f
9:42am 15 20 mph 1006.3mb 56f 74f
9:36am 11 17 mph 1006.4mb 56f 74f
9:30am 10 23 mph 1006.4mb 57f 74f
9:24am 11 20 mph 1006.5mb 57f 74f
9:18am 14 21 mph 1006.4mb 57f 74f
9:12am 15 24 mph 1006.4mb 57f 74f
9:06am 16 22 mph 1006.5mb 57f 74f
9:00am 17 23 mph 1006.5mb 57f 73f
8:54am 18 23 mph 1006.7mb 57f 72f
8:48am 18 24 mph 1006.8mb 57f 72f
8:42am 18 28 mph 1006.8mb 58f 72f
8:36am 18 26 mph 1006.9mb 58f 73f
8:30am 20 25 mph 1007mb 58f 73f
8:24am 18 26 mph 1007.2mb 58f 72f
8:18am 16 26 mph 1007.3mb 58f 72f
8:12am 15 26 mph 1007.2mb 58f 72f
8:06am 16 22 mph 1007.3mb 58f 72f
8:00am 17 24 mph 1007.3mb 58f 72f
7:54am 17 24 mph 1007.5mb 58f 71f
7:48am 15 24 mph 1007.7mb 58f 71f
7:42am 15 23 mph 1007.8mb 58f 71f
7:36am 15 23 mph 1007.8mb 58f 71f
7:30am 13 21 mph 1007.8mb 58f 72f
7:24am 15 21 mph 1007.9mb 58f 72f
7:18am 13 20 mph 1007.9mb 58f 72f
7:12am 13 22 mph 1008mb 58f 72f
7:06am 13 21 mph 1007.9mb 58f 72f
7:00am 15 21 mph 1008mb 58f 72f
6:54am 14 22 mph 1008.1mb 58f 72f
6:48am 14 22 mph 1007.9mb 58f 72f
6:42am 14 23 mph 1007.9mb 58f 72f
6:36am 15 22 mph 1007.8mb 58f 72f
6:30am 16 24 mph 1008mb 58f 72f
6:24am 11 23 mph 1007.9mb 58f 72f
6:18am 15 21 mph 1007.9mb 58f 73f
6:12am 10 18 mph 1007.9mb 58f 73f
6:06am 11 20 mph 1007.9mb 58f 73f
6:00am 10 20 mph 1008mb 57f 73f
5:54am 10 18 mph 1008.1mb 58f 74f
5:48am 11 18 mph 1008.1mb 58f 75f
5:42am 13 16 mph 1008mb 57f 75f
5:36am 11 17 mph 1008.1mb 57f 75f
5:30am 9 16 mph 1008.3mb 58f 75f
5:24am 11 16 mph 1008.2mb 58f 76f
5:18am 10 18 mph 1008.2mb 58f 76f
5:12am 10 14 mph 1008.1mb 58f 77f
5:06am 8 14 mph 1008.1mb 58f 76f
5:00am 6 14 mph 1008.3mb 58f 75f
4:54am 3 8 mph 1008.4mb 58f 74f
4:48am 5 10 mph 1008.5mb 58f 72f
4:42am 6 9 mph 1008.6mb 58f 72f
4:36am 5 10 mph 1008.7mb 58f 69f
4:30am 2 5 mph 1008.8mb 58f 68f
4:24am 3 6 mph 1008.9mb 57f 64f
4:18am 3 6 mph 1009mb 57f 63f
4:12am 2 5 mph 1009mb 57f 63f
4:06am 1 3 mph 1009.1mb 57f 64f
4:00am 3 7 mph 1009.2mb 57f 65f
3:54am 7 8 mph 1009.2mb 57f 64f
3:48am 5 9 mph 1009.2mb 57f 64f
3:42am 5 7 mph 1009.1mb 57f 69f
3:36am 6 10 mph 1009.1mb 57f 76f
3:30am 6 11 mph 1009.1mb 57f 77f
3:24am 5 10 mph 1009.2mb 57f 76f
3:18am 6 9 mph 1009.4mb 57f 76f
3:12am 5 9 mph 1009.4mb 57f 76f
3:06am 6 11 mph 1009.4mb 57f 76f
3:00am 8 11 mph 1009.5mb 57f 76f
2:54am 5 9 mph 1009.6mb 57f 73f
2:48am 6 7 mph 1009.8mb 56f -
2:42am 6 10 mph 1009.9mb 56f -
2:36am 7 9 mph 1010mb 56f -
2:30am 8 13 mph 1010mb 56f 74f
2:24am 7 10 mph 1010mb 56f 75f
2:18am 8 13 mph 1010.2mb 56f 75f
2:12am 5 9 mph 1010.2mb 56f 71f
2:06am 5 8 mph 1010.2mb 55f 70f
2:00am 7 13 mph 1010.4mb 54f 71f
1:54am 7 10 mph 1010.5mb 53f 75f
1:48am 8 13 mph 1010.6mb - -
1:42am 7 14 mph 1010.7mb - -
1:36am 9 14 mph 1010.7mb - -
1:30am 9 14 mph 1010.6mb 53f 76f
1:24am 8 15 mph 1010.7mb 52f 76f
1:18am 6 9 mph 1010.8mb 53f 75f
1:12am 3 9 mph 1010.8mb 53f 71f
1:06am 1 5 mph 1010.9mb 52f 68f
1:00am 1 6 mph 1010.9mb 52f 68f
12:54am 5 7 mph 1011.1mb 52f 65f
12:48am 5 7 mph 1011.2mb 53f 66f
12:42am 6 7 mph 1011.4mb 53f 65f
12:36am 3 7 mph 1011.6mb 53f 69f
12:30am 6 8 mph 1011.6mb 53f 74f
12:24am 3 10 mph 1011.8mb 54f 74f
12:18am 5 10 mph 1011.7mb 55f 74f
12:12am 5 15 mph 1011.8mb 55f 74f
12:06am 7 13 mph 1011.8mb 55f 74f
12:00am 6 14 mph 1011.9mb 56f 74f
Thu 07/21 11:54pm 9 14 mph 1011.8mb 55f 74f
11:48pm 7 11 mph 1012mb 55f 74f
11:42pm 7 11 mph 1011.9mb 55f 74f
11:36pm 6 9 mph 1012mb 55f 74f
11:30pm 6 9 mph 1011.9mb 55f 74f
11:24pm 7 10 mph 1012mb 55f 74f
11:18pm 5 11 mph - 56f 74f
11:12pm 7 11 mph - 56f 74f
11:06pm 9 13 mph - 55f 74f
11:00pm  -  mph - 55f 74f
10:54pm  -  mph - 55f 74f
10:48pm 5 11 mph - 56f -
10:42pm 9 14 mph - 56f -
10:36pm 6 13 mph - 56f -
10:30pm 7 14 mph - 56f -
10:24pm 9 13 mph - 55f -
10:18pm 8 11 mph - 55f 73f
10:12pm 7 9 mph - 56f 73f
10:06pm 9 13 mph - 56f 73f
10:00pm  -  mph - 55f 73f
9:54pm  -  mph - 56f 73f
9:48pm 8 17 mph - - -
9:42pm 8 17 mph - - -
9:36pm 10 17 mph - - -
9:30pm 8 17 mph - 57f -
9:24pm 10 18 mph - 57f -
9:18pm 9 18 mph - 57f -
9:12pm 9 22 mph - 57f -
9:06pm 11 21 mph - 56f -
9:00pm  -  mph - 56f 73f
8:54pm  -  mph - 56f 73f
8:48pm  -  mph - 57f -
8:42pm  -  mph - 57f -
8:36pm  -  mph - 57f -
8:30pm  -  mph - 58f -
8:24pm  -  mph - 58f -
8:18pm 6 13 mph 1013mb 58f -
8:12pm 8 15 mph 1012.8mb 58f -
8:06pm 10 16 mph 1012.9mb 58f -
8:00pm  -  mph - 58f 73f
7:54pm  -  mph - 58f 73f
7:48pm  -  mph - 58f -
7:42pm  -  mph - 58f -
7:36pm  -  mph - 59f -
7:30pm  -  mph - 59f -
7:24pm  -  mph - 59f -
7:18pm 9 16 mph - 59f 74f
7:12pm 9 16 mph - 59f 74f
7:06pm 9 14 mph - 59f 75f
7:00pm  -  mph - 59f -
6:54pm  -  mph - 60f -
6:48pm  -  mph - 60f -
6:42pm  -  mph - 60f -
6:36pm  -  mph - 60f -
6:30pm  -  mph - 60f -
6:24pm  -  mph - 60f -
6:18pm  -  mph 1013.7mb 60f 74f
6:12pm  -  mph 1013.8mb 60f 74f
6:06pm  -  mph 1013.9mb 60f 75f
6:00pm  -  mph - 60f 75f
5:54pm  -  mph - 60f 75f
5:48pm 10 16 mph 1014.2mb 60f 75f
5:42pm 6 14 mph 1014.2mb 60f 76f
5:36pm 8 14 mph 1014.1mb 60f 76f
5:30pm 10 16 mph 1014.1mb 60f 76f
5:24pm 10 15 mph 1014.1mb 60f 76f
5:18pm 6 13 mph 1014.2mb 60f 76f
5:12pm 11 17 mph 1014.3mb 60f 76f
5:06pm 13 16 mph 1014.2mb 60f 76f
5:00pm 10 15 mph 1014.1mb 60f 77f
4:54pm 11 17 mph 1014mb 59f 77f
4:48pm 8 15 mph 1014.1mb 58f 77f
4:42pm 9 16 mph 1014.2mb 59f 78f
4:36pm 9 16 mph 1014.4mb 58f 78f
4:30pm 10 18 mph 1014.5mb 58f 78f
4:24pm 15 21 mph 1014.5mb 59f 77f
4:18pm 14 21 mph 1014.6mb 60f 78f
4:12pm 11 20 mph 1014.6mb 59f 78f
4:06pm 13 20 mph 1014.6mb 58f 78f
4:00pm 13 18 mph 1014.4mb 59f 78f
3:54pm 10 18 mph 1014.5mb 60f 78f
3:48pm 14 20 mph 1014.6mb 59f 78f
3:42pm 13 18 mph 1014.7mb 59f 78f
3:36pm 9 14 mph 1014.7mb 59f 79f
3:30pm 10 16 mph 1014.6mb 59f 78f
3:24pm 9 14 mph 1014.6mb 59f 79f
3:18pm 8 15 mph 1014.6mb 60f 79f
3:12pm 8 14 mph 1014.5mb 59f 79f
3:06pm 7 13 mph 1014.3mb 58f 80f
3:00pm 8 14 mph 1014.4mb 59f 79f
2:54pm 8 14 mph 1014.5mb 60f 79f
2:48pm 9 16 mph 1014.3mb 58f 79f
2:42pm 13 17 mph 1014.3mb 59f 79f
2:36pm 9 15 mph 1014.4mb 59f 80f
2:30pm 10 15 mph 1014.6mb 59f 79f
2:24pm 11 16 mph 1014.7mb 60f 79f
2:18pm 8 14 mph 1014.6mb 60f 79f
2:12pm 9 14 mph 1014.8mb 59f 79f
2:06pm 7 16 mph 1014.8mb 58f 79f
2:00pm 10 14 mph 1014.9mb 58f 79f
1:54pm 8 16 mph 1014.9mb 59f 80f
1:48pm 6 13 mph 1014.9mb 60f 80f
1:42pm 6 16 mph 1014.7mb 59f 80f
1:36pm 7 14 mph 1015mb 58f 81f
1:30pm 9 15 mph 1015.1mb 56f 80f
1:24pm 8 13 mph 1015.2mb 56f 79f
1:18pm 8 17 mph 1015.4mb 57f 79f
1:12pm 7 16 mph 1015.5mb 56f 79f
1:06pm 7 14 mph 1015.5mb 56f 79f
1:00pm 8 16 mph 1015.7mb 57f 79f
12:54pm 7 11 mph 1015.7mb 56f 78f
12:48pm 9 15 mph 1015.8mb 56f 78f
12:42pm 8 13 mph 1015.9mb 57f 78f
12:36pm 9 13 mph 1016mb 58f 78f
12:30pm 6 10 mph 1016.2mb 58f 78f
12:24pm 9 15 mph 1016.3mb 59f 78f
12:18pm 9 15 mph 1016.4mb 58f 78f
12:12pm 8 11 mph 1016.5mb 58f 78f
12:06pm 7 14 mph 1016.5mb 58f 78f
12:00pm 8 14 mph 1016.6mb 58f 78f
11:54am 8 13 mph 1016.7mb 58f 78f
11:48am 7 11 mph 1016.8mb 58f 77f
11:42am 7 13 mph 1016.7mb 58f 77f
11:36am 7 10 mph 1016.8mb 57f 77f
11:30am 5 9 mph 1016.8mb 57f 77f
11:24am 7 11 mph 1016.9mb 57f 77f
11:18am 6 10 mph 1017mb 57f 76f
11:12am 7 10 mph 1017mb 57f 75f
11:06am 9 10 mph 1017mb 57f 76f
11:00am 8 10 mph 1017mb 57f 76f
10:54am 3 10 mph 1017.1mb 57f 76f
10:48am 6 13 mph 1017.1mb 57f 76f
10:42am 8 13 mph 1017mb 57f 75f
10:36am 3 8 mph 1016.9mb 57f 75f
10:30am 8 13 mph 1017.1mb 57f 75f
10:24am 7 10 mph 1017.2mb 58f 74f
10:18am 9 14 mph 1017.3mb 58f 75f
10:12am 9 13 mph 1017.3mb 57f 74f
10:06am 10 14 mph 1017.2mb 57f 74f
10:00am 11 14 mph 1017.3mb 57f 74f
9:54am 10 13 mph 1017.3mb 57f 74f
9:48am 9 13 mph 1017.3mb 58f 74f
9:42am 8 14 mph 1017.3mb 58f 74f
9:36am 8 10 mph 1017.3mb 58f 74f
9:30am 8 9 mph 1017.2mb 58f 74f
9:24am 7 10 mph 1017.3mb 58f 73f
9:18am 8 13 mph 1017.3mb 58f 73f
9:12am 8 10 mph 1017.1mb 58f 73f
9:06am 8 10 mph 1017.1mb 58f 73f
9:00am 9 10 mph 1016.9mb 59f 73f
8:54am 7 10 mph 1016.7mb 59f 73f
8:48am 7 10 mph 1016.7mb 58f 73f
8:42am 7 10 mph 1016.8mb 59f 73f
8:36am 7 11 mph 1017mb 59f 72f
8:30am 10 13 mph 1017.1mb 59f 72f
8:24am 9 11 mph 1017mb 59f 71f
8:18am 9 11 mph 1016.9mb 59f 71f
8:12am 6 15 mph 1017mb 60f 71f
8:06am 9 14 mph 1017.1mb 60f 71f
8:00am 5 10 mph 1017.3mb 60f 71f
7:54am 6 10 mph 1017.3mb 60f 71f
7:48am 8 14 mph 1017.4mb 60f 70f
7:42am 7 14 mph 1017.4mb 60f 70f
7:36am 8 13 mph 1017.4mb 60f 70f
7:30am 9 13 mph 1017.4mb 60f 69f
7:24am 7 10 mph 1017.3mb 60f 70f
7:18am 7 10 mph 1017.3mb 60f 69f
7:12am 6 8 mph 1017.4mb 60f 69f
7:06am 7 8 mph 1017.4mb 60f 68f
7:00am 7 8 mph 1017.4mb 60f 68f
6:54am 7 10 mph 1017.4mb 60f 67f
6:48am 8 10 mph 1017.3mb 60f 67f
6:42am 8 9 mph 1017.2mb 60f 68f
6:36am 6 8 mph 1017.1mb 60f 68f
6:30am 6 7 mph 1017.1mb 60f 68f
6:24am 5 7 mph 1017mb 60f 67f
6:18am 3 5 mph 1017.1mb 60f 68f
6:12am 2 6 mph 1017.1mb 60f 68f
6:06am 3 7 mph 1017.2mb 60f 68f
6:00am 6 8 mph 1017.2mb 60f 67f
5:54am 6 10 mph 1017.2mb 60f 67f
5:48am 6 9 mph 1017.1mb 60f 67f
5:42am 6 7 mph 1016.9mb 60f 68f
5:36am 8 11 mph 1016.9mb 60f 68f
5:30am 9 15 mph 1016.8mb 60f 68f
5:24am 9 14 mph 1016.7mb 60f 69f
5:18am 7 14 mph 1016.7mb 60f 68f
5:12am 10 16 mph 1016.7mb 60f 68f
5:06am 8 16 mph 1016.7mb 60f 68f
5:00am 9 15 mph 1016.5mb 60f 68f
4:54am 8 14 mph 1016.5mb 60f 68f
4:48am 8 14 mph 1016.4mb 60f 68f
4:42am 7 9 mph 1016.3mb 60f 68f
4:36am 6 13 mph 1016.2mb 60f 68f
4:30am 9 14 mph 1016.2mb 60f 67f
4:24am 9 16 mph 1016.2mb 60f 67f
4:18am 11 15 mph 1016.2mb 60f 67f
4:12am 9 14 mph 1016.2mb 60f 67f
4:06am 8 14 mph 1016.4mb 60f 67f
4:00am 13 16 mph 1016.4mb 60f 68f
3:54am 11 16 mph 1016.5mb 60f 67f
3:48am 13 16 mph 1016.4mb 60f 67f
3:42am 10 15 mph 1016.4mb 60f 67f
3:36am 9 14 mph 1016.5mb 60f 67f
3:30am 9 14 mph 1016.6mb 60f 67f
3:24am 9 15 mph 1016.6mb 60f 67f
3:18am 9 16 mph 1016.6mb 60f 68f
3:12am 11 15 mph 1016.5mb 60f 68f
3:06am 11 16 mph 1016.6mb 60f 67f
3:00am 11 15 mph 1016.7mb 60f 67f
2:54am 10 15 mph 1016.7mb 60f 68f
2:48am 10 15 mph 1016.8mb 60f 67f
2:42am 9 14 mph 1016.9mb 60f 68f
2:36am 9 14 mph 1016.8mb 59f 68f
2:30am 9 14 mph 1016.8mb 59f 68f
2:24am 9 14 mph 1016.8mb 59f 68f
2:18am 9 13 mph 1016.9mb 59f 68f
2:12am 8 14 mph 1016.8mb 59f 68f
2:06am 7 14 mph 1016.8mb 59f 68f
2:00am 10 15 mph 1016.9mb 59f 69f
1:54am 10 16 mph 1016.9mb 59f 69f
1:48am 10 15 mph 1016.8mb - -
1:42am 9 16 mph 1016.8mb - -
1:36am 9 15 mph 1016.9mb - -
1:30am 11 17 mph 1016.9mb 58f 69f
1:24am 8 13 mph 1016.9mb 59f 69f
1:18am 7 13 mph 1017mb 59f 69f
1:12am 9 14 mph 1017mb 59f 70f
1:06am 8 13 mph 1016.9mb 59f 69f
1:00am 7 11 mph 1017mb 58f 69f
12:54am 7 11 mph 1016.9mb 58f 70f
12:48am 7 10 mph 1016.9mb 58f 70f
12:42am 8 13 mph 1016.8mb 56f 71f
12:36am 9 13 mph 1016.9mb 56f 70f
12:30am 6 10 mph 1016.9mb 55f 70f
12:24am 6 8 mph 1016.9mb 56f 71f
12:18am 7 10 mph 1016.8mb 55f 71f
12:12am 7 10 mph 1016.7mb 55f 71f
12:06am 6 11 mph 1016.6mb 55f 71f
12:00am 7 9 mph 1016.6mb 55f 71f
Wed 07/20 11:54pm 6 10 mph 1016.7mb 56f 71f
11:48pm 7 11 mph 1016.7mb 55f 71f
11:42pm 7 10 mph 1016.7mb 55f 71f
11:36pm 7 11 mph 1016.6mb 55f 70f
11:30pm 7 11 mph 1016.6mb 55f 71f
11:24pm 6 8 mph 1016.6mb 55f 71f
11:18pm  -  mph - 56f -
11:12pm  -  mph - 56f -
11:06pm  -  mph - 57f -
11:00pm  -  mph - 58f 71f
10:54pm  -  mph - 57f 71f
10:48pm  -  mph 1016.6mb 58f -
10:42pm  -  mph 1016.6mb 58f -
10:36pm  -  mph 1016.6mb 58f -
10:30pm 6 9 mph - 58f -
10:24pm 6 8 mph - 58f -
10:18pm 6 8 mph - 58f -
10:12pm 5 7 mph - 58f -
10:06pm 3 6 mph - 58f -
10:00pm  -  mph - 58f 70f
9:54pm  -  mph - 58f 71f
9:48pm 7 10 mph 1016.7mb 58f -
9:42pm 8 11 mph 1016.7mb 58f -
9:36pm 9 11 mph 1016.6mb 58f -
9:30pm  -  mph - 60f -
9:24pm  -  mph - 59f -
9:18pm 9 13 mph - 59f -
9:12pm 9 11 mph - 59f -
9:06pm 8 10 mph - 59f -
9:00pm  -  mph - 59f 71f
8:54pm  -  mph - 59f 72f
8:48pm  -  mph 1016mb 59f -
8:42pm  -  mph 1016mb 60f -
8:36pm  -  mph 1015.9mb 60f -
8:30pm 9 11 mph - 60f -
8:24pm 6 7 mph - 60f -
8:18pm 5 7 mph - 60f 72f
8:12pm 6 10 mph - 60f 71f
8:06pm 10 11 mph - 60f 71f
8:00pm  -  mph 1015.4mb 60f 72f
7:54pm  -  mph 1015.3mb 60f 72f
7:48pm  -  mph 1015.2mb 60f 72f
7:42pm  -  mph 1015.3mb 61f 71f
7:36pm  -  mph 1015.3mb 61f 73f
7:30pm 10 11 mph - 61f -
7:24pm 10 11 mph - 61f -
7:18pm 10 11 mph - 62f -
7:12pm 9 10 mph - 62f -
7:06pm 9 11 mph - 62f -
7:00pm  -  mph - - 74f
6:54pm  -  mph - - 73f
6:48pm 8 13 mph - - -
6:42pm 10 13 mph - - -
6:36pm 10 14 mph - - -
6:30pm 13 16 mph - 62f -
6:24pm 11 16 mph - 62f -
6:18pm 13 14 mph - 62f 75f
6:12pm 14 16 mph - 62f 74f
6:06pm 13 16 mph - 62f 75f
6:00pm  -  mph - 62f 75f
5:54pm  -  mph - 63f 76f
5:48pm  -  mph - 62f 75f
5:42pm  -  mph - 62f 74f
5:36pm  -  mph - 63f 75f
5:30pm 9 15 mph 1014.4mb 62f 75f
5:24pm 10 13 mph 1014.3mb 63f 76f
5:18pm 8 13 mph 1014.4mb 63f 74f
5:12pm 11 14 mph 1014.4mb 63f 75f
5:06pm 10 14 mph 1014.4mb 62f 75f
5:00pm 11 15 mph 1014.4mb 62f 75f
4:54pm 11 16 mph 1014.5mb 61f 75f
4:48pm 15 17 mph 1014.4mb 62f 74f
4:42pm 11 16 mph 1014.5mb 62f 74f
4:36pm 13 15 mph 1014.5mb 62f 75f
4:30pm 11 17 mph 1014.6mb 62f 75f
4:24pm 9 14 mph 1014.6mb 62f 75f
4:18pm 13 17 mph 1014.6mb 61f 75f
4:12pm 11 14 mph 1014.6mb 61f 74f
4:06pm 10 18 mph 1014.6mb 61f 74f
4:00pm 16 20 mph 1014.5mb 61f 75f
3:54pm 14 18 mph 1014.6mb 61f 74f
3:48pm 16 20 mph 1014.6mb 61f 74f
3:42pm 16 21 mph 1014.7mb 60f 73f
3:36pm 16 20 mph 1014.6mb 60f 74f
3:30pm 16 21 mph 1014.7mb 60f 74f
3:24pm 18 23 mph 1014.7mb 62f 74f
3:18pm 17 22 mph 1014.7mb 62f 74f
3:12pm 14 21 mph 1014.7mb 61f 74f
3:06pm 17 21 mph 1014.8mb 61f 74f
3:00pm 10 17 mph 1014.8mb 62f 74f
2:54pm 14 22 mph 1014.9mb 62f 74f
2:48pm 15 18 mph 1015mb 61f 73f
2:42pm 15 18 mph 1015mb 61f 72f
2:36pm 13 20 mph 1015mb 61f 74f
2:30pm 16 18 mph 1015mb 61f 73f
2:24pm 18 23 mph 1015mb 61f 73f
2:18pm 20 23 mph 1015mb 61f 73f
2:12pm 14 23 mph 1015.1mb 61f 73f
2:06pm 14 18 mph 1015mb 60f 74f
2:00pm 17 25 mph 1015.1mb 60f 73f
1:54pm 16 20 mph 1015.2mb 61f 73f
1:48pm 15 20 mph 1015.3mb 61f 73f
1:42pm 18 22 mph 1015.3mb 60f 73f
1:36pm 15 22 mph 1015.3mb 60f 73f
1:30pm 14 17 mph 1015.2mb 60f 73f
1:24pm 14 22 mph 1015.2mb 60f 73f
1:18pm 14 20 mph 1015.2mb 60f 72f
1:12pm 16 22 mph 1015.2mb 61f 72f
1:06pm 15 23 mph 1015.3mb 61f 72f
1:00pm 20 23 mph 1015.3mb 61f 72f
12:54pm 15 26 mph 1015.3mb 60f 71f
12:48pm 18 23 mph 1015.4mb 60f 71f
12:42pm 21 25 mph 1015.6mb 60f 71f
12:36pm 20 25 mph 1015.5mb 60f 71f
12:30pm 14 21 mph 1015.7mb 60f 71f
12:24pm 21 24 mph 1015.7mb 58f 71f
12:18pm 17 23 mph 1015.8mb 56f 71f
12:12pm 17 22 mph 1015.8mb 55f 70f
12:06pm 14 20 mph 1015.9mb 59f 70f
12:00pm 15 25 mph 1016mb 59f 71f
11:54am 22 28 mph 1015.9mb 59f 70f
11:48am 18 24 mph 1015.9mb 60f 69f
11:42am 21 25 mph 1016.2mb 59f 69f
11:36am 15 25 mph 1016.2mb 60f 69f
11:30am 15 29 mph 1016.2mb 60f 70f
11:24am 18 28 mph 1016.2mb 60f 69f
11:18am 22 28 mph 1016.2mb 57f 68f
11:12am 18 24 mph 1016.3mb 56f 69f
11:06am 18 29 mph 1016.2mb 57f 69f
11:00am 20 25 mph 1016.1mb 58f 69f
10:54am 22 25 mph 1016.1mb 58f 69f
10:48am 21 28 mph 1016mb 59f 69f
10:42am 15 26 mph 1016.1mb 58f 69f
10:36am 18 28 mph 1016.1mb 56f 69f
10:30am 20 28 mph 1016.2mb 58f 69f
10:24am 18 24 mph 1016.2mb 56f 67f
10:18am 20 26 mph 1016.2mb 57f 69f
10:12am 15 22 mph 1016.2mb 56f 68f
10:06am 13 20 mph 1016.3mb 56f 68f
10:00am 15 28 mph 1016.3mb 56f 68f
9:54am 18 23 mph 1016.2mb 56f 67f
9:48am 14 23 mph 1016.4mb 56f 67f
9:42am 20 25 mph 1016.4mb 56f 67f
9:36am 11 21 mph 1016.5mb 56f 67f
9:30am 11 20 mph 1016.5mb 57f 67f
9:24am 15 21 mph 1016.6mb 57f 67f
9:18am 11 23 mph 1016.7mb 58f 67f
9:12am 14 20 mph 1016.8mb 58f 67f
9:06am 16 24 mph 1016.7mb 58f 66f
9:00am 13 18 mph 1016.7mb 58f 66f
8:54am 11 18 mph 1016.8mb 58f 66f
8:48am 11 18 mph 1016.8mb 58f 66f
8:42am 15 22 mph 1016.8mb 58f 66f
8:36am 14 21 mph 1016.7mb 58f 65f
8:30am 13 20 mph 1016.6mb 58f 65f
8:24am 10 18 mph 1016.6mb 58f 65f
8:18am 13 21 mph 1016.6mb 58f 65f
8:12am 11 17 mph 1016.6mb 58f 65f
8:06am 11 17 mph 1016.7mb 58f 65f
8:00am 11 18 mph 1016.7mb 58f 65f
7:54am 14 18 mph 1016.6mb 58f 64f
7:48am 10 18 mph 1016.6mb 59f 64f
7:42am 11 18 mph 1016.7mb 59f 64f
7:36am 10 21 mph 1016.6mb 59f 64f
7:30am 13 20 mph 1016.6mb 60f 63f
7:24am 11 17 mph 1016.6mb 60f 63f
7:18am 10 17 mph 1016.6mb 60f 63f
7:12am 11 15 mph 1016.7mb 60f 63f
7:06am 9 20 mph 1016.6mb 60f 62f
7:00am 13 21 mph 1016.6mb 60f 62f
6:54am 13 22 mph 1016.5mb 60f 62f
6:48am 11 17 mph 1016.6mb 60f 62f
6:42am 13 17 mph 1016.5mb 60f 62f
6:36am 11 21 mph 1016.4mb 60f 62f
6:30am 11 18 mph 1016.4mb 60f 61f
6:24am 10 18 mph 1016.4mb 60f 61f
6:18am 9 16 mph 1016.5mb 60f 61f
6:12am 9 16 mph 1016.5mb 60f 61f
6:06am 11 16 mph 1016.5mb 60f 61f
6:00am 11 16 mph 1016.6mb 60f 61f
5:54am 9 15 mph 1016.6mb 61f 61f
5:48am 11 17 mph 1016.7mb 61f 61f
5:42am 9 15 mph 1016.7mb 61f 61f
5:36am 9 14 mph 1016.7mb 61f 60f
5:30am 9 14 mph 1016.7mb 61f 60f
5:24am 10 16 mph 1016.7mb 61f 61f
5:18am 9 17 mph 1016.8mb 61f 61f
5:12am 10 15 mph 1016.9mb 61f 61f
5:06am 10 16 mph 1016.8mb 61f 61f
5:00am 10 15 mph 1016.7mb 61f 61f
4:54am 10 16 mph 1016.8mb 61f 61f
4:48am 10 16 mph 1016.8mb 61f 61f
4:42am 11 15 mph 1016.7mb 61f 61f
4:36am 9 15 mph 1016.7mb 61f 61f
4:30am 13 16 mph 1016.6mb 61f 61f
4:24am 11 16 mph 1016.7mb 61f 61f
4:18am 9 15 mph 1016.7mb 61f 61f
4:12am 9 17 mph 1016.6mb 61f 61f
4:06am 9 16 mph 1016.6mb 61f 61f
4:00am 10 17 mph 1016.6mb 61f 62f
3:54am 9 16 mph 1016.6mb 61f 62f
3:48am 10 16 mph 1016.5mb 61f 62f
3:42am 9 16 mph 1016.6mb 61f 62f
3:36am 10 17 mph 1016.5mb 61f 62f
3:30am 11 16 mph 1016.5mb 61f 62f
3:24am 11 16 mph 1016.5mb 61f 62f
3:18am 9 14 mph 1016.4mb 61f 62f
3:12am 10 15 mph 1016.4mb 61f 62f
3:06am 9 14 mph 1016.4mb 61f 62f
3:00am 11 17 mph 1016.4mb 61f 62f
2:54am 11 15 mph 1016.4mb 61f 62f
2:48am 9 16 mph 1016.4mb - -
2:42am 11 16 mph 1016.2mb - -
2:36am 9 17 mph 1016.2mb - -
2:30am 10 18 mph 1016.2mb 61f 63f
2:24am 11 18 mph 1016.1mb 61f 63f
2:18am 9 14 mph 1016mb 61f 62f
2:12am 10 15 mph 1016mb 61f 62f
2:06am 9 16 mph 1016.1mb 61f 61f
2:00am 10 15 mph 1016.1mb 61f 61f
1:54am 10 15 mph 1016.1mb 61f 61f
1:48am 8 15 mph 1016.1mb 61f -
1:42am 10 17 mph 1016.1mb 61f -
1:36am 9 17 mph 1016.1mb 61f -
1:30am  -  mph 1016.1mb 61f 62f
1:24am  -  mph 1016.1mb 61f 62f
1:18am 10 15 mph 1016.1mb 61f 63f
1:12am 9 14 mph 1016.2mb 61f 63f
1:06am 9 15 mph 1016.2mb 60f 63f
1:00am 9 16 mph 1016.1mb 61f 63f
12:54am 11 16 mph 1016.2mb 60f 63f
12:48am 8 14 mph 1016.2mb 60f 62f
12:42am 9 14 mph 1016.3mb 60f 63f
12:36am 10 15 mph 1016.2mb 60f 63f
12:30am 9 15 mph 1016.2mb 60f 62f
12:24am 9 15 mph 1016.2mb 60f 63f
12:18am 9 14 mph 1016.3mb 60f 63f
12:12am 9 14 mph 1016.3mb 60f 63f
12:06am 9 14 mph 1016.3mb 60f 63f
12:00am 8 13 mph 1016.4mb 60f 63f
Tue 07/19 11:54pm 8 13 mph 1016.4mb 60f 63f
11:48pm 8 13 mph 1016.4mb 60f 63f
11:42pm 8 16 mph 1016.4mb 60f 64f
11:36pm 9 15 mph 1016.4mb 59f 64f
11:30pm 9 15 mph 1016.4mb 60f 64f
11:24pm 10 14 mph 1016.5mb 61f 64f
11:18pm  -  mph - 61f 64f
11:12pm  -  mph - 61f 64f
11:06pm  -  mph - 60f 64f
11:00pm  -  mph - 59f 64f
10:54pm  -  mph - 59f 64f
10:48pm 7 13 mph 1016.4mb 59f -
10:42pm 9 14 mph 1016.3mb 59f -
10:36pm 7 14 mph 1016.3mb 60f -
10:30pm 8 14 mph - 59f -
10:24pm 8 13 mph - 59f -
10:18pm  -  mph - 59f 65f
10:12pm  -  mph - 58f 65f
10:06pm  -  mph - 59f 65f
10:00pm  -  mph - 59f 65f
9:54pm  -  mph - 59f 65f
9:48pm 9 14 mph 1016mb 59f -
9:42pm 8 13 mph 1015.9mb 59f -
9:36pm 7 11 mph 1015.9mb 58f -
9:30pm 10 14 mph 1015.9mb 58f -
9:24pm 11 14 mph 1015.8mb 58f -
9:18pm  -  mph - 59f -
9:12pm  -  mph - 59f -
9:06pm  -  mph - 59f -
9:00pm  -  mph - 59f 67f
8:54pm  -  mph - 60f 67f
8:48pm 8 10 mph 1015.3mb - -
8:42pm 5 7 mph 1015.3mb - -
8:36pm 6 8 mph 1015.2mb - -
8:30pm  -  mph - 60f -
8:24pm  -  mph - 60f -
8:18pm  -  mph 1015mb 60f 68f
8:12pm  -  mph 1014.9mb 60f 69f
8:06pm  -  mph 1014.9mb 59f 68f
8:00pm  -  mph - 59f 68f
7:54pm  -  mph - 60f 69f
7:48pm 9 11 mph - - -
7:42pm 11 13 mph - - -
7:36pm 11 15 mph - - -
7:30pm  -  mph - 61f -
7:24pm  -  mph - 61f -
7:18pm 15 21 mph - 62f 71f
7:12pm 16 22 mph - 62f 71f
7:06pm 17 21 mph - 62f 71f
7:00pm  -  mph - 62f -
6:54pm  -  mph - 62f -
6:48pm  -  mph - 62f -
6:42pm  -  mph - 62f -
6:36pm  -  mph - 62f -
6:30pm  -  mph - 62f -
6:24pm  -  mph - 62f -
6:18pm  -  mph - 62f 72f
6:12pm  -  mph - 63f 71f
6:06pm  -  mph - 63f 71f
6:00pm  -  mph - 63f 72f
5:54pm  -  mph - 62f 71f
5:48pm  -  mph - 62f 72f
5:42pm  -  mph - 63f 72f
5:36pm  -  mph - 63f 72f
5:30pm 11 15 mph 1013.6mb 63f 71f
5:24pm 15 20 mph 1013.5mb 62f 72f
5:18pm 14 16 mph 1013.4mb 63f 71f
5:12pm 13 15 mph 1013.5mb 63f 71f
5:06pm 14 17 mph 1013.4mb 63f 71f
5:00pm 10 14 mph 1013.5mb 63f 71f
4:54pm 14 16 mph 1013.5mb 63f 72f
4:48pm 13 15 mph 1013.5mb 62f 71f
4:42pm 13 17 mph 1013.6mb 63f 71f
4:36pm 15 17 mph 1013.6mb 63f 71f
4:30pm 13 18 mph 1013.6mb 62f 71f
4:24pm 14 18 mph 1013.5mb 62f 71f
4:18pm 14 18 mph 1013.5mb 62f 71f
4:12pm 13 17 mph 1013.5mb 62f 71f
4:06pm 13 17 mph 1013.5mb 62f 72f
4:00pm 15 18 mph 1013.5mb 62f 72f
3:54pm 14 17 mph 1013.6mb 62f 71f
3:48pm 11 17 mph 1013.6mb 62f 71f
3:42pm 15 21 mph 1013.5mb 62f 71f
3:36pm 15 20 mph 1013.5mb 62f 71f
3:30pm 15 20 mph 1013.5mb 61f 71f
3:24pm 14 20 mph 1013.6mb 61f 70f
3:18pm 13 21 mph 1013.6mb 62f 70f